Minneapolis, Minnesota
Traffic Map
Current Weather Conditions
Minneapolis, Minnesota
Clear
Clear
-7°
Feels Like: -16°
Wind Chill: -16° Ceiling: Unl
Heat Index: -7° Visibility: 10mi
Dew Point: -16° Wind: 17mph
Humidity: 50% Direction: 340° (NNW)
Pressure: 29.9in Gusts: 29mph
Raw Report DataKMSP 250653Z 34015G25KT 10SM CLR M07/M16 A2990 RMK AO2 PK WND 35027/0637 SLP139 T10721161
Traffic Incident Summary
Active as of:
Severity:
Category:
InformationThere was an issue retrieving the traffic information for this location. Please try a different location or try again shortly.
Advertisements
Track Severe Weather on mobile